Terminal Aerodrome Forecast
Issued by NWS Sioux Falls, SD

Home | Current Version | Previous Version | Graphics & Text | Print | Product List | Glossary Off
Versions: 1 2 3 4 5 6 7 8 9 10 11 12 13 14 15 16 17 18 19 20 21 22 23 24 25 26 27

000
FTUS43 KFSD 011300 AAA
TAFSUX
TAF AMD
KSUX 011305Z 0113/0212 VRB03KT P6SM SCT080
      TEMPO 0113/0114 5SM BR
     FM020000 16005KT P6SM SCT120=

USA.gov is the U.S. government's official web portal to all federal, state and local government web resources and services.